Time;durP1;ratioP1;P1;durP2;ratioP2;P2;SDS_P1;SDS_P2;PMS_P1;PMS_P2;Temp;Humidity;BMP_temperature;BMP_pressure;BME280_temperature;BME280_humidity;BME280_pressure;Samples;Min_cycle;Max_cycle;Signal;HPM_P1;HPM_P2
2021/01/27 00:00:25;;;;;;;29.42;14.45;;;;;;;3.33;99.31;100905.56;5008518;28;20030;-80
2021/01/27 00:02:51;;;;;;;25.42;14.30;;;;;;;3.22;100.00;100905.00;4999592;28;20031;-80
2021/01/27 00:05:25;;;;;;;29.17;14.00;;;;;;;3.21;100.00;100903.44;5005472;28;20034;-80
2021/01/27 00:07:50;;;;;;;29.00;15.95;;;;;;;3.24;99.91;100900.16;4991885;28;20534;-80
2021/01/27 00:10:18;;;;;;;36.95;17.25;;;;;;;3.32;100.00;100896.00;4981912;28;20118;-80
2021/01/27 00:12:43;;;;;;;39.25;18.33;;;;;;;3.33;100.00;100884.28;4994414;28;20038;-80
2021/01/27 00:15:22;;;;;;;46.42;20.92;;;;;;;3.35;100.00;100890.88;4992933;28;20535;-80
2021/01/27 00:17:47;;;;;;;43.35;21.20;;;;;;;3.36;100.00;100889.00;4965169;28;20038;-79
2021/01/27 00:20:16;;;;;;;48.17;23.25;;;;;;;3.49;100.00;100872.97;4994529;28;20041;-80
2021/01/27 00:22:42;;;;;;;40.20;19.45;;;;;;;3.46;100.00;100873.59;5011600;28;20407;-80
2021/01/27 00:25:09;;;;;;;43.40;21.10;;;;;;;3.42;100.00;100874.50;4993531;28;20027;-80
2021/01/27 00:27:35;;;;;;;45.83;20.73;;;;;;;3.52;100.00;100863.63;4993114;28;20031;-80
2021/01/27 00:30:02;;;;;;;44.63;21.90;;;;;;;3.43;100.00;100866.19;4990225;28;20446;-80
2021/01/27 00:32:28;;;;;;;43.67;22.13;;;;;;;3.47;100.00;100861.06;4993537;28;20172;-80
2021/01/27 00:34:54;;;;;;;42.80;22.20;;;;;;;3.33;100.00;100857.69;4995140;28;20109;-80
2021/01/27 00:37:21;;;;;;;40.85;21.33;;;;;;;3.43;100.00;100863.53;4997308;28;20481;-80
2021/01/27 00:39:47;;;;;;;48.00;22.10;;;;;;;3.41;100.00;100849.75;5010702;28;20140;-80
2021/01/27 00:42:13;;;;;;;45.22;22.58;;;;;;;3.42;100.00;100850.53;4992683;28;20034;-80
2021/01/27 00:44:39;;;;;;;43.03;22.10;;;;;;;3.42;100.00;100848.69;4976908;28;20042;-79
2021/01/27 00:47:04;;;;;;;51.45;25.02;;;;;;;3.48;100.00;100854.66;4992600;28;20508;-80
2021/01/27 00:49:30;;;;;;;53.65;24.48;;;;;;;3.50;100.00;100849.81;4995269;28;20058;-80
2021/01/27 00:51:55;;;;;;;55.08;24.08;;;;;;;3.18;100.00;100847.34;4990228;28;20027;-80
2021/01/27 00:54:41;;;;;;;55.10;26.92;;;;;;;3.29;100.00;100838.09;4977549;28;20034;-80
2021/01/27 00:57:07;;;;;;;53.17;22.65;;;;;;;3.43;100.00;100844.91;4935287;29;20139;-79
2021/01/27 00:59:35;;;;;;;52.55;23.50;;;;;;;3.46;100.00;100844.31;4936488;29;20066;-79
2021/01/27 01:02:01;;;;;;;48.95;23.20;;;;;;;3.45;100.00;100844.59;4901925;29;20042;-80
2021/01/27 01:04:38;;;;;;;46.28;22.95;;;;;;;3.43;100.00;100842.25;4905609;29;20050;-80
2021/01/27 01:07:03;;;;;;;48.80;23.02;;;;;;;3.39;100.00;100843.16;4929058;29;20032;-80
2021/01/27 01:09:29;;;;;;;53.78;24.52;;;;;;;3.48;100.00;100838.69;4935916;29;20075;-80
2021/01/27 01:11:55;;;;;;;48.80;24.40;;;;;;;3.44;100.00;100841.19;4922536;29;20082;-80
2021/01/27 01:14:21;;;;;;;54.38;25.45;;;;;;;3.47;100.00;100832.56;4903088;29;20127;-80
2021/01/27 01:16:48;;;;;;;53.70;24.80;;;;;;;3.41;100.00;100831.13;4915777;29;20138;-80
2021/01/27 01:19:13;;;;;;;52.38;24.58;;;;;;;3.47;100.00;100831.78;4922132;29;20193;-80
2021/01/27 01:21:39;;;;;;;56.92;26.38;;;;;;;3.48;100.00;100833.38;4926991;29;20071;-80
2021/01/27 01:24:06;;;;;;;63.55;26.50;;;;;;;3.58;100.00;100844.53;4935563;29;20036;-80
2021/01/27 01:26:32;;;;;;;53.50;26.00;;;;;;;3.39;100.00;100845.81;4932253;29;20028;-80
2021/01/27 01:28:57;;;;;;;51.17;24.63;;;;;;;3.38;100.00;100841.59;4936685;29;20051;-80
2021/01/27 01:31:24;;;;;;;54.17;24.65;;;;;;;3.53;100.00;100839.34;4916002;29;20043;-80
2021/01/27 01:33:49;;;;;;;54.33;25.55;;;;;;;3.59;100.00;100842.66;4931598;28;20603;-80
2021/01/27 01:36:15;;;;;;;58.50;26.98;;;;;;;3.64;100.00;100835.34;4977364;28;20034;-80
2021/01/27 01:38:40;;;;;;;53.88;25.15;;;;;;;3.71;100.00;100839.47;4980449;28;20054;-80
2021/01/27 01:41:06;;;;;;;58.00;27.27;;;;;;;3.57;100.00;100835.00;4992347;28;20038;-80
2021/01/27 01:43:37;;;;;;;58.13;27.33;;;;;;;3.71;100.00;100845.56;4985667;28;20037;-80
2021/01/27 01:46:13;;;;;;;48.60;25.20;;;;;;;3.73;100.00;100838.06;4994681;28;20041;-80
2021/01/27 01:48:52;;;;;;;55.63;25.83;;;;;;;3.76;100.00;100841.97;4986286;28;20131;-80
2021/01/27 01:51:39;;;;;;;52.53;25.48;;;;;;;3.71;100.00;100829.59;4976968;28;20031;-80
2021/01/27 01:54:29;;;;;;;49.75;25.25;;;;;;;3.67;100.00;100833.97;5008667;28;20037;-80
2021/01/27 01:57:03;;;;;;;52.70;25.38;;;;;;;3.73;100.00;100831.94;4982861;28;20392;-80
2021/01/27 01:59:33;;;;;;;49.70;24.98;;;;;;;3.77;100.00;100840.91;4977019;28;20026;-80
2021/01/27 02:02:06;;;;;;;50.20;24.42;;;;;;;3.75;100.00;100827.91;4990256;28;20033;-80
2021/01/27 02:04:48;;;;;;;44.42;23.83;;;;;;;3.78;100.00;100835.28;5010404;28;20022;-80
2021/01/27 02:07:17;;;;;;;48.58;23.33;;;;;;;3.78;100.00;100837.94;4997061;28;20029;-80
2021/01/27 02:09:43;;;;;;;44.67;22.42;;;;;;;3.78;100.00;100831.81;4980737;28;20029;-79
2021/01/27 02:12:29;;;;;;;44.60;22.50;;;;;;;3.78;100.00;100824.63;4973930;28;20392;-80
2021/01/27 02:15:31;;;;;;;48.75;23.95;;;;;;;3.83;100.00;100827.19;4994799;28;20041;-80
2021/01/27 02:18:09;;;;;;;50.47;23.80;;;;;;;3.82;100.00;100822.13;4992338;28;20566;-80
2021/01/27 02:20:48;;;;;;;50.78;23.77;;;;;;;3.84;100.00;100814.63;4990767;28;20072;-80
2021/01/27 02:23:37;;;;;;;47.20;23.27;;;;;;;3.64;100.00;100806.06;4987586;28;20037;-80
2021/01/27 02:26:24;;;;;;;42.83;21.33;;;;;;;3.76;100.00;100807.38;4991381;28;20045;-80
2021/01/27 02:29:11;;;;;;;45.85;23.90;;;;;;;3.64;100.00;100816.72;4993917;28;20531;-80
2021/01/27 02:32:14;;;;;;;40.92;21.83;;;;;;;3.68;100.00;100803.56;4990487;28;20038;-80
2021/01/27 02:34:43;;;;;;;50.08;23.30;;;;;;;3.78;100.00;100799.84;4954575;28;20046;-80
2021/01/27 02:37:16;;;;;;;48.28;23.42;;;;;;;3.61;100.00;100797.91;4991874;28;20524;-80
2021/01/27 02:39:52;;;;;;;49.47;22.67;;;;;;;3.74;100.00;100796.22;4992912;28;20031;-80
2021/01/27 02:42:36;;;;;;;48.58;23.27;;;;;;;3.82;100.00;100790.97;4995968;28;20030;-79
2021/01/27 02:45:17;;;;;;;47.20;22.60;;;;;;;3.82;100.00;100803.50;4994854;28;20126;-80
2021/01/27 02:48:09;;;;;;;;;;;;;;;3.76;100.00;100794.84;5006532;28;20062;-80
2021/01/27 02:50:41;;;;;;;;;;;;;;;3.77;100.00;100795.63;4987882;28;19933;-80
2021/01/27 02:53:16;;;;;;;50.10;23.05;;;;;;;3.85;100.00;100795.69;4990580;28;19918;-80
2021/01/27 02:55:49;;;;;;;58.10;23.42;;;;;;;3.72;100.00;100791.22;4993705;28;20061;-80
2021/01/27 02:58:22;;;;;;;44.78;21.77;;;;;;;3.52;100.00;100794.41;4991112;28;20037;-80
2021/01/27 03:00:55;;;;;;;46.63;22.27;;;;;;;3.62;100.00;100794.13;4977040;28;20057;-80
2021/01/27 03:03:35;;;;;;;52.03;23.80;;;;;;;3.51;100.00;100793.63;4990100;28;20488;-80
2021/01/27 03:06:06;;;;;;;51.75;22.98;;;;;;;3.56;100.00;100785.50;4959468;28;20030;-80
2021/01/27 03:08:36;;;;;;;56.97;25.45;;;;;;;3.62;100.00;100788.81;4977443;28;20026;-80
2021/01/27 03:11:14;;;;;;;54.87;25.57;;;;;;;3.64;100.00;100775.97;4977571;28;20419;-80
2021/01/27 03:13:44;;;;;;;60.67;25.55;;;;;;;3.60;100.00;100777.72;4991238;28;20030;-79
2021/01/27 03:16:38;;;;;;;60.25;25.42;;;;;;;3.60;100.00;100780.38;4992856;28;20038;-80
2021/01/27 03:19:22;;;;;;;55.42;23.85;;;;;;;3.68;100.00;100772.41;4966181;28;20060;-80
2021/01/27 03:21:55;;;;;;;66.90;26.95;;;;;;;3.50;100.00;100776.06;4974277;28;20073;-80
2021/01/27 03:24:23;;;;;;;55.63;23.95;;;;;;;3.55;100.00;100778.63;4998387;28;20037;-80
2021/01/27 03:26:58;;;;;;;64.30;25.77;;;;;;;3.67;100.00;100775.38;4992339;28;20101;-80
2021/01/27 03:29:28;;;;;;;60.65;25.83;;;;;;;3.60;100.00;100772.38;5012884;28;20038;-80
2021/01/27 03:31:56;;;;;;;61.53;25.92;;;;;;;3.70;100.00;100776.66;4974199;28;20034;-80
2021/01/27 03:34:30;;;;;;;55.30;25.02;;;;;;;3.68;100.00;100777.75;4994625;28;20095;-80
2021/01/27 03:37:05;;;;;;;56.03;25.52;;;;;;;3.73;100.00;100776.03;4991972;28;20030;-80
2021/01/27 03:39:36;;;;;;;46.17;23.10;;;;;;;3.72;100.00;100775.25;4976848;28;20026;-80
2021/01/27 03:42:08;;;;;;;56.87;26.17;;;;;;;3.80;100.00;100773.72;4991701;28;20034;-80
2021/01/27 03:44:38;;;;;;;65.90;27.15;;;;;;;3.90;100.00;100768.13;5006462;28;20042;-80
2021/01/27 03:47:08;;;;;;;59.65;26.40;;;;;;;3.64;100.00;100770.66;4976250;28;20034;-80
2021/01/27 03:50:00;;;;;;;56.50;24.77;;;;;;;3.50;100.00;100769.97;4989863;28;20071;-80
2021/01/27 03:52:25;;;;;;;57.65;26.58;;;;;;;3.68;100.00;100766.28;4975837;28;20306;-80
2021/01/27 03:55:04;;;;;;;65.00;27.02;;;;;;;3.63;100.00;100761.91;5005587;28;20041;-79
2021/01/27 03:57:36;;;;;;;60.30;25.30;;;;;;;3.62;100.00;100762.97;4991711;28;20408;-79
2021/01/27 04:00:07;;;;;;;62.10;26.08;;;;;;;3.72;100.00;100755.84;4994898;28;20042;-80
2021/01/27 04:02:37;;;;;;;55.97;25.45;;;;;;;3.70;100.00;100761.44;5006350;28;20050;-80
2021/01/27 04:05:03;;;;;;;64.47;26.75;;;;;;;3.69;100.00;100751.91;4986996;28;20490;-79
2021/01/27 04:07:28;;;;;;;69.70;27.60;;;;;;;3.57;100.00;100746.34;4974156;28;20034;-80
2021/01/27 04:09:54;;;;;;;63.75;27.17;;;;;;;3.58;100.00;100747.94;4981383;28;20039;-80
2021/01/27 04:12:20;;;;;;;64.97;28.15;;;;;;;3.68;100.00;100745.00;4987868;28;20031;-79
2021/01/27 04:14:45;;;;;;;61.88;28.73;;;;;;;3.75;100.00;100750.69;4992808;28;20066;-80
2021/01/27 04:17:13;;;;;;;79.47;27.85;;;;;;;3.83;100.00;100751.81;4978332;28;21032;-80
2021/01/27 04:19:38;;;;;;;64.68;27.02;;;;;;;3.75;100.00;100749.91;5000037;28;20054;-80
2021/01/27 04:22:04;;;;;;;64.75;27.35;;;;;;;3.71;100.00;100752.38;4990805;28;20707;-79
2021/01/27 04:24:29;;;;;;;63.75;27.08;;;;;;;3.51;100.00;100744.91;4992544;28;20022;-80
2021/01/27 04:26:55;;;;;;;72.40;28.33;;;;;;;3.64;100.00;100742.16;5000674;28;20038;-80
2021/01/27 04:29:20;;;;;;;64.18;28.27;;;;;;;3.65;100.00;100741.09;4976367;28;20031;-81
2021/01/27 04:31:46;;;;;;;66.88;29.27;;;;;;;3.63;100.00;100745.13;4995137;28;20039;-79
2021/01/27 04:34:11;;;;;;;61.60;27.67;;;;;;;3.80;100.00;100739.88;4973859;28;20038;-80
2021/01/27 04:36:37;;;;;;;64.78;27.88;;;;;;;3.81;100.00;100740.69;4979275;28;20093;-80
2021/01/27 04:39:02;;;;;;;71.55;30.83;;;;;;;3.75;100.00;100731.25;4994757;28;20026;-80
2021/01/27 04:41:28;;;;;;;78.90;32.63;;;;;;;3.87;100.00;100739.47;4977947;28;20038;-79
2021/01/27 04:43:53;;;;;;;67.75;29.23;;;;;;;3.81;100.00;100730.03;5011157;28;20042;-80
2021/01/27 04:46:23;;;;;;;76.30;31.38;;;;;;;3.87;100.00;100726.13;4995771;28;20491;-79
2021/01/27 04:48:59;;;;;;;69.07;28.95;;;;;;;3.95;100.00;100728.06;4993396;28;20040;-79
2021/01/27 04:51:56;;;;;;;70.22;29.02;;;;;;;3.72;100.00;100714.00;4995271;28;20041;-79
2021/01/27 04:54:58;;;;;;;60.95;28.15;;;;;;;3.73;100.00;100718.25;4993926;28;20050;-79
2021/01/27 04:57:27;;;;;;;57.80;26.67;;;;;;;3.83;100.00;100715.31;4989833;28;20034;-79
2021/01/27 05:00:13;;;;;;;70.43;29.30;;;;;;;4.02;100.00;100705.19;4983518;28;20112;-79
2021/01/27 05:02:57;;;;;;;68.97;29.13;;;;;;;4.00;100.00;100703.94;4992569;28;20035;-79
2021/01/27 05:05:30;;;;;;;76.03;29.70;;;;;;;3.99;100.00;100697.03;5006260;28;20078;-79
2021/01/27 05:08:03;;;;;;;66.72;29.25;;;;;;;3.63;100.00;100706.00;4992191;28;20041;-80
2021/01/27 05:10:41;;;;;;;59.53;28.15;;;;;;;3.72;100.00;100699.94;4999807;28;20517;-79
2021/01/27 05:13:18;;;;;;;75.28;30.10;;;;;;;3.86;100.00;100689.94;4982582;28;20053;-79
2021/01/27 05:15:45;;;;;;;67.28;28.77;;;;;;;3.93;100.00;100699.03;4984055;28;20043;-79
2021/01/27 05:18:13;;;;;;;69.90;29.15;;;;;;;4.05;100.00;100699.25;4992769;28;20041;-79
2021/01/27 05:20:38;;;;;;;71.63;30.00;;;;;;;4.03;100.00;100692.66;4994365;28;20387;-79
2021/01/27 05:23:04;;;;;;;76.50;31.58;;;;;;;4.07;100.00;100689.06;4995113;28;20035;-79
2021/01/27 05:25:58;;;;;;;68.22;29.20;;;;;;;3.96;100.00;100692.31;5012408;28;20031;-80
2021/01/27 05:28:30;;;;;;;78.38;30.70;;;;;;;4.00;100.00;100688.75;4990859;28;20049;-79
2021/01/27 05:30:56;;;;;;;65.80;29.15;;;;;;;4.05;100.00;100688.59;4976715;28;20038;-79
2021/01/27 05:34:00;;;;;;;72.72;31.00;;;;;;;4.04;100.00;100681.69;4995024;28;20034;-79
2021/01/27 05:36:28;;;;;;;69.32;29.85;;;;;;;4.04;100.00;100680.91;4943634;29;20055;-79
2021/01/27 05:39:14;;;;;;;65.47;29.10;;;;;;;4.12;100.00;100686.25;4948668;29;20035;-78
2021/01/27 05:41:41;;;;;;;65.65;29.05;;;;;;;4.05;100.00;100690.44;4941278;29;20056;-79
2021/01/27 05:44:25;;;;;;;69.28;29.80;;;;;;;4.02;100.00;100683.88;4949513;29;20035;-79
2021/01/27 05:46:51;;;;;;;75.07;31.05;;;;;;;4.28;100.00;100692.69;4944303;28;20047;-79
2021/01/27 05:49:28;;;;;;;74.13;30.02;;;;;;;4.19;100.00;100685.78;4945875;29;20448;-79
2021/01/27 05:52:11;;;;;;;70.47;29.83;;;;;;;4.15;100.00;100688.28;4944904;29;20038;-79
2021/01/27 05:54:36;;;;;;;70.40;30.20;;;;;;;4.04;100.00;100691.56;4953772;28;20079;-79
2021/01/27 05:57:02;;;;;;;72.72;30.83;;;;;;;3.85;100.00;100685.72;4956959;28;20054;-79
2021/01/27 05:59:28;;;;;;;78.75;31.73;;;;;;;3.96;100.00;100682.47;4936199;29;20035;-79
2021/01/27 06:02:02;;;;;;;75.88;31.52;;;;;;;4.04;100.00;100683.56;4947711;29;20047;-79
2021/01/27 06:04:31;;;;;;;79.65;33.78;;;;;;;3.90;100.00;100682.91;4948257;29;20032;-79
2021/01/27 06:07:01;;;;;;;68.55;30.13;;;;;;;3.91;100.00;100679.16;4974708;28;20061;-79
2021/01/27 06:09:36;;;;;;;66.88;29.15;;;;;;;3.97;100.00;100677.94;4996152;28;20030;-79
2021/01/27 06:12:05;;;;;;;75.50;30.70;;;;;;;3.96;100.00;100679.78;4980343;28;20030;-79
2021/01/27 06:14:32;;;;;;;77.50;31.73;;;;;;;3.91;100.00;100668.50;4978178;28;20038;-79
2021/01/27 06:17:15;;;;;;;82.85;33.35;;;;;;;3.80;100.00;100667.19;4987954;28;20029;-79
2021/01/27 06:19:41;;;;;;;86.30;32.65;;;;;;;3.96;100.00;100668.34;4970087;28;20094;-81
2021/01/27 06:22:26;;;;;;;83.15;34.03;;;;;;;3.87;100.00;100668.31;4981486;28;20130;-79
2021/01/27 06:25:20;;;;;;;81.72;34.67;;;;;;;4.04;100.00;100663.06;4960582;28;20034;-79
2021/01/27 06:28:12;;;;;;;96.80;38.45;;;;;;;4.08;100.00;100649.88;4992457;28;20042;-79
2021/01/27 06:31:03;;;;;;;;;;;;;;;4.04;100.00;100652.41;4978832;28;20057;-79
2021/01/27 06:33:56;;;;;;;81.93;31.80;;;;;;;4.07;100.00;100645.66;5001628;28;19913;-80
2021/01/27 06:37:01;;;;;;;94.55;33.90;;;;;;;4.07;100.00;100650.97;5022757;28;20172;-79
2021/01/27 06:39:29;;;;;;;87.80;34.28;;;;;;;4.12;100.00;100642.84;4999445;28;20030;-79
2021/01/27 06:42:06;;;;;;;88.65;35.30;;;;;;;4.22;100.00;100653.22;4994838;28;20068;-79
2021/01/27 06:44:59;;;;;;;83.80;34.10;;;;;;;4.26;100.00;100646.94;4978598;28;20029;-79
2021/01/27 06:47:25;;;;;;;85.07;34.17;;;;;;;4.19;100.00;100649.28;4995412;28;20064;-79
2021/01/27 06:50:12;;;;;;;89.90;35.33;;;;;;;4.19;100.00;100657.28;4984922;28;20057;-79
2021/01/27 06:52:52;;;;;;;81.07;33.67;;;;;;;4.28;100.00;100652.72;4974898;28;20487;-79
2021/01/27 06:55:50;;;;;;;84.88;35.20;;;;;;;4.33;100.00;100659.78;4975951;28;20034;-80
2021/01/27 06:58:45;;;;;;;87.13;34.55;;;;;;;4.34;100.00;100650.69;4989409;28;20042;-79
2021/01/27 07:01:43;;;;;;;87.63;35.38;;;;;;;4.33;100.00;100649.13;4950957;28;20664;-80
2021/01/27 07:04:50;;;;;;;78.88;33.17;;;;;;;4.21;100.00;100652.41;4988023;28;20039;-80
2021/01/27 07:07:34;;;;;;;84.38;35.05;;;;;;;4.22;100.00;100645.97;4947419;28;20638;-80
2021/01/27 07:10:25;;;;;;;85.40;36.08;;;;;;;4.37;100.00;100655.41;4984639;28;20105;-80
2021/01/27 07:13:25;;;;;;;91.57;35.75;;;;;;;3.95;100.00;100645.47;4999599;28;20030;-80
2021/01/27 07:15:58;;;;;;;89.05;35.90;;;;;;;4.06;100.00;100646.75;4943529;28;20054;-80
2021/01/27 07:18:33;;;;;;;94.75;35.60;;;;;;;4.30;100.00;100639.88;4973773;28;20076;-80
2021/01/27 07:21:17;;;;;;;93.03;35.70;;;;;;;4.30;100.00;100649.75;4984863;28;20487;-80
2021/01/27 07:24:04;;;;;;;89.53;35.42;;;;;;;4.30;100.00;100644.41;4991068;28;20034;-80
2021/01/27 07:26:41;;;;;;;104.75;37.70;;;;;;;4.30;100.00;100644.41;4992677;28;20045;-81
2021/01/27 07:29:19;;;;;;;101.93;39.05;;;;;;;4.15;100.00;100651.00;4997162;28;20168;-80
2021/01/27 07:32:15;;;;;;;90.40;36.90;;;;;;;4.01;100.00;100652.22;4997331;28;20066;-80
2021/01/27 07:34:47;;;;;;;93.47;36.58;;;;;;;4.14;100.00;100649.41;4967990;28;20078;-80
2021/01/27 07:37:23;;;;;;;91.05;38.90;;;;;;;3.91;100.00;100647.97;4954515;28;20664;-79
2021/01/27 07:40:27;;;;;;;87.95;37.40;;;;;;;4.13;100.00;100644.41;4949396;28;20070;-79
2021/01/27 07:43:09;;;;;;;91.00;37.85;;;;;;;4.28;100.00;100641.28;4917957;29;20040;-80
2021/01/27 07:45:56;;;;;;;85.78;35.92;;;;;;;4.15;100.00;100636.88;4945599;28;20696;-80
2021/01/27 07:48:24;;;;;;;90.40;37.75;;;;;;;4.39;100.00;100645.22;4919383;29;20048;-80
2021/01/27 07:50:55;;;;;;;94.53;39.08;;;;;;;4.34;100.00;100635.50;4917865;29;20179;-80
2021/01/27 07:53:56;;;;;;;91.55;37.30;;;;;;;4.26;100.00;100630.13;4901640;29;20139;-80
2021/01/27 07:56:34;;;;;;;84.45;36.13;;;;;;;4.26;100.00;100633.59;4933532;29;20063;-80
2021/01/27 07:59:09;;;;;;;82.93;36.38;;;;;;;4.14;100.00;100630.00;4917184;29;20051;-79
2021/01/27 08:01:45;;;;;;;84.85;37.85;;;;;;;4.20;100.00;100626.09;4933352;29;20042;-79
2021/01/27 08:04:26;;;;;;;94.57;39.78;;;;;;;4.19;100.00;100624.50;4931737;29;20401;-80
2021/01/27 08:06:54;;;;;;;90.10;40.50;;;;;;;4.11;100.00;100615.41;4918274;29;20163;-80
2021/01/27 08:09:42;;;;;;;90.80;38.05;;;;;;;4.29;100.00;100606.34;4917032;29;20309;-80
2021/01/27 08:12:13;;;;;;;81.22;36.53;;;;;;;4.13;100.00;100609.75;4910013;29;20134;-80
2021/01/27 08:15:04;;;;;;;86.22;37.22;;;;;;;4.31;100.00;100603.34;4931673;29;20506;-80
2021/01/27 08:17:36;;;;;;;91.07;40.30;;;;;;;4.36;100.00;100600.53;4919047;29;20500;-80
2021/01/27 08:20:15;;;;;;;82.03;36.38;;;;;;;4.28;100.00;100610.09;4948823;28;20138;-80
2021/01/27 08:22:47;;;;;;;79.22;35.85;;;;;;;4.35;100.00;100606.97;4916010;29;20036;-80
2021/01/27 08:25:51;;;;;;;80.13;36.35;;;;;;;4.46;100.00;100605.53;4954569;28;20056;-80
2021/01/27 08:28:26;;;;;;;85.28;36.90;;;;;;;4.44;100.00;100602.41;4996611;28;20514;-80
2021/01/27 08:31:10;;;;;;;82.78;35.42;;;;;;;4.48;100.00;100608.69;4961154;28;20614;-80
2021/01/27 08:33:44;;;;;;;69.80;34.28;;;;;;;4.29;100.00;100594.88;4995557;28;20034;-80
2021/01/27 08:36:33;;;;;;;78.07;37.38;;;;;;;4.44;100.00;100597.88;4996459;28;20125;-79
2021/01/27 08:38:58;;;;;;;73.57;33.92;;;;;;;4.42;100.00;100601.94;4979650;28;20042;-79
2021/01/27 08:41:46;;;;;;;75.93;35.17;;;;;;;4.54;100.00;100592.22;4982554;28;20134;-80
2021/01/27 08:44:27;;;;;;;66.43;32.83;;;;;;;4.47;100.00;100593.78;4996998;28;20070;-79
2021/01/27 08:47:08;;;;;;;66.88;32.03;;;;;;;4.32;100.00;100578.25;5009733;28;20129;-79
2021/01/27 08:49:37;;;;;;;70.15;33.53;;;;;;;4.25;100.00;100575.28;5015072;28;20125;-79
2021/01/27 08:52:31;;;;;;;69.25;33.45;;;;;;;4.39;100.00;100574.00;4992100;28;20062;-79
2021/01/27 08:54:57;;;;;;;67.03;33.17;;;;;;;4.56;100.00;100582.00;4990136;28;20509;-80
2021/01/27 08:57:37;;;;;;;70.50;33.80;;;;;;;4.71;100.00;100580.72;4993058;28;20033;-79
2021/01/27 09:00:21;;;;;;;70.20;32.35;;;;;;;5.20;100.00;100582.00;4978646;28;20633;-80
2021/01/27 09:02:59;;;;;;;57.05;29.23;;;;;;;4.86;100.00;100587.44;4973282;28;20034;-79
2021/01/27 09:05:24;;;;;;;59.55;29.92;;;;;;;4.82;100.00;100573.19;4987942;28;20029;-80
2021/01/27 09:07:51;;;;;;;54.00;29.15;;;;;;;4.61;99.86;100585.63;5001011;28;20491;-80
2021/01/27 09:10:18;;;;;;;62.90;30.58;;;;;;;4.62;100.00;100587.16;4997634;28;20062;-80
2021/01/27 09:12:46;;;;;;;57.33;28.83;;;;;;;4.84;100.00;100590.41;4979393;28;20461;-80
2021/01/27 09:15:22;;;;;;;58.95;31.42;;;;;;;4.77;98.65;100592.00;4980789;28;20097;-80
2021/01/27 09:17:47;;;;;;;62.45;30.75;;;;;;;5.06;99.56;100603.53;4980150;28;20038;-80
2021/01/27 09:20:13;;;;;;;58.78;29.63;;;;;;;5.47;98.46;100608.25;4977289;28;20138;-80
2021/01/27 09:22:39;;;;;;;50.35;28.15;;;;;;;5.69;96.93;100604.53;4979224;28;20035;-80
2021/01/27 09:25:05;;;;;;;54.65;27.13;;;;;;;5.56;96.30;100592.16;4995607;28;20031;-80
2021/01/27 09:27:32;;;;;;;58.67;28.50;;;;;;;5.81;94.78;100584.00;4997019;28;20376;-80
2021/01/27 09:30:14;;;;;;;51.50;26.65;;;;;;;6.05;95.22;100570.84;5001685;28;20033;-80
2021/01/27 09:32:40;;;;;;;52.92;29.63;;;;;;;6.15;92.78;100577.69;5007542;28;20547;-80
2021/01/27 09:35:22;;;;;;;52.03;28.52;;;;;;;5.93;92.81;100580.66;4975585;28;20126;-80
2021/01/27 09:37:54;;;;;;;;;;;;;;;6.13;92.88;100580.69;4995320;28;20040;-79
2021/01/27 09:40:37;;;;;;;48.22;25.23;;;;;;;6.21;92.20;100584.41;4995902;28;20013;-80
2021/01/27 09:43:07;;;;;;;44.65;23.95;;;;;;;6.08;91.87;100588.09;4977388;28;20041;-80
2021/01/27 09:45:34;;;;;;;45.30;23.50;;;;;;;5.80;91.65;100603.84;4974640;28;20515;-80
2021/01/27 09:48:01;;;;;;;47.50;24.30;;;;;;;5.99;91.77;100595.41;5003764;28;20642;-80
2021/01/27 09:50:28;;;;;;;41.30;22.70;;;;;;;6.05;92.53;100608.25;4966047;28;20049;-80
2021/01/27 09:52:57;;;;;;;42.03;23.98;;;;;;;6.49;90.75;100614.81;4977363;28;20038;-80
2021/01/27 09:55:25;;;;;;;45.78;24.50;;;;;;;6.47;89.64;100608.22;5006819;28;20030;-80
2021/01/27 09:57:52;;;;;;;44.65;23.00;;;;;;;6.81;87.79;100621.31;4990832;28;20553;-80
2021/01/27 10:00:28;;;;;;;45.38;23.33;;;;;;;6.95;87.62;100614.53;4971054;28;20164;-80
2021/01/27 10:02:54;;;;;;;41.38;23.77;;;;;;;6.88;87.27;100619.66;5013226;28;20045;-81
2021/01/27 10:05:38;;;;;;;40.22;22.77;;;;;;;6.40;86.32;100614.13;4987407;28;20030;-81
2021/01/27 10:08:17;;;;;;;40.13;21.75;;;;;;;6.61;88.54;100604.19;4994906;28;20049;-80
2021/01/27 10:10:43;;;;;;;41.55;22.23;;;;;;;6.79;87.33;100610.94;4998384;28;20132;-81
2021/01/27 10:13:11;;;;;;;38.15;22.38;;;;;;;6.71;87.39;100608.34;4989541;28;20046;-80
2021/01/27 10:15:36;;;;;;;40.67;21.90;;;;;;;7.05;85.85;100608.75;4983459;28;20085;-80
2021/01/27 10:18:08;;;;;;;36.13;18.25;;;;;;;7.16;85.47;100615.25;4993663;28;20124;-80
2021/01/27 10:20:36;;;;;;;35.95;19.50;;;;;;;7.30;84.66;100610.34;4985988;28;20495;-80
2021/01/27 10:23:07;;;;;;;32.75;18.10;;;;;;;7.02;85.19;100608.66;4979284;28;20038;-80
2021/01/27 10:25:39;;;;;;;30.52;17.98;;;;;;;6.87;84.51;100602.03;4981113;28;20042;-80
2021/01/27 10:28:23;;;;;;;28.65;16.58;;;;;;;7.35;83.51;100598.66;4986446;28;20450;-80
2021/01/27 10:30:58;;;;;;;34.28;17.15;;;;;;;6.85;85.31;100598.88;4981061;28;20038;-80
2021/01/27 10:33:52;;;;;;;25.13;14.02;;;;;;;6.56;85.32;100585.69;4981075;28;20038;-80
2021/01/27 10:36:24;;;;;;;29.02;14.63;;;;;;;6.69;84.53;100581.13;4974979;28;20047;-80
2021/01/27 10:39:09;;;;;;;27.40;15.18;;;;;;;6.77;84.70;100569.56;5004076;28;20037;-80
2021/01/27 10:41:34;;;;;;;30.55;15.27;;;;;;;6.67;83.84;100569.97;4981515;28;20133;-80
2021/01/27 10:44:20;;;;;;;23.00;13.77;;;;;;;6.82;84.20;100575.47;4993002;28;20073;-80
2021/01/27 10:46:46;;;;;;;20.60;12.52;;;;;;;6.52;82.89;100568.72;4990422;28;20045;-81
2021/01/27 10:49:11;;;;;;;22.92;13.55;;;;;;;6.58;84.48;100562.03;4962672;28;20109;-80
2021/01/27 10:51:41;;;;;;;23.73;12.48;;;;;;;6.87;83.52;100563.78;4990185;28;20125;-80
2021/01/27 10:54:08;;;;;;;21.90;12.32;;;;;;;6.85;82.15;100558.75;4978586;28;20054;-80
2021/01/27 10:56:33;;;;;;;19.17;10.77;;;;;;;6.80;83.12;100556.28;4988924;28;20057;-80
2021/01/27 10:59:02;;;;;;;21.27;11.95;;;;;;;6.63;82.95;100548.44;4988874;28;20065;-80
2021/01/27 11:01:27;;;;;;;18.85;10.68;;;;;;;6.55;82.41;100549.31;4983446;28;20054;-80
2021/01/27 11:03:53;;;;;;;19.42;10.77;;;;;;;6.42;83.48;100547.72;4995866;28;20125;-80
2021/01/27 11:06:18;;;;;;;19.45;10.77;;;;;;;6.52;83.17;100550.00;4984629;28;20517;-80
2021/01/27 11:08:45;;;;;;;17.48;10.30;;;;;;;6.79;82.29;100548.59;5002275;28;20040;-80
2021/01/27 11:11:12;;;;;;;19.60;10.18;;;;;;;6.96;81.79;100554.53;4976650;28;20065;-80
2021/01/27 11:13:38;;;;;;;16.05;10.07;;;;;;;7.11;80.56;100547.75;4989411;28;20019;-80
2021/01/27 11:16:06;;;;;;;22.10;10.93;;;;;;;7.32;80.04;100553.78;4991879;28;20050;-80
2021/01/27 11:18:31;;;;;;;17.83;10.32;;;;;;;7.40;79.87;100542.16;4989323;28;20062;-80
2021/01/27 11:20:57;;;;;;;20.52;10.80;;;;;;;7.36;80.18;100549.31;4996248;28;20035;-80
2021/01/27 11:23:23;;;;;;;18.77;9.60;;;;;;;7.19;80.27;100546.88;4980538;28;20041;-79
2021/01/27 11:25:50;;;;;;;16.92;9.73;;;;;;;6.86;79.84;100533.56;5001363;28;20121;-81
2021/01/27 11:28:15;;;;;;;19.58;9.52;;;;;;;6.77;80.96;100535.56;5001172;28;20042;-80
2021/01/27 11:30:41;;;;;;;19.50;9.80;;;;;;;7.01;81.70;100522.19;4997809;28;20037;-80
2021/01/27 11:33:07;;;;;;;16.25;9.70;;;;;;;7.22;80.69;100512.16;4986957;28;20061;-80
2021/01/27 11:35:32;;;;;;;18.35;9.43;;;;;;;7.20;80.27;100513.63;4973068;28;20110;-80
2021/01/27 11:38:01;;;;;;;16.27;9.63;;;;;;;7.48;80.21;100509.13;4991119;28;20041;-80
2021/01/27 11:40:27;;;;;;;16.17;9.32;;;;;;;7.34;80.53;100505.25;4973103;28;20041;-80
2021/01/27 11:42:53;;;;;;;15.70;9.13;;;;;;;7.43;78.95;100505.91;5003616;28;20038;-79